sensor_id;sensor_type;location;lat;lon;timestamp;pressure;altitude;pressure_sealevel;temperature;humidity
70302;BME280;57706;56.326;43.882;2023-04-01T00:00:55;99663.53;;;2.88;76.57
70302;BME280;57706;56.326;43.882;2023-04-01T00:03:22;99657.53;;;2.97;76.50
70302;BME280;57706;56.326;43.882;2023-04-01T00:05:48;99667.81;;;3.09;76.10
70302;BME280;57706;56.326;43.882;2023-04-01T00:08:15;99665.72;;;2.93;76.51
70302;BME280;57706;56.326;43.882;2023-04-01T00:10:41;99666.25;;;2.86;76.85
70302;BME280;57706;56.326;43.882;2023-04-01T00:13:07;99663.53;;;2.88;77.05
70302;BME280;57706;56.326;43.882;2023-04-01T00:15:33;99653.66;;;2.82;77.23
70302;BME280;57706;56.326;43.882;2023-04-01T00:17:59;99658.00;;;2.71;78.28
70302;BME280;57706;56.326;43.882;2023-04-01T00:20:26;99640.16;;;2.88;77.60
70302;BME280;57706;56.326;43.882;2023-04-01T00:22:52;99637.97;;;2.93;77.31
70302;BME280;57706;56.326;43.882;2023-04-01T00:25:18;99628.91;;;2.78;78.21
70302;BME280;57706;56.326;43.882;2023-04-01T00:27:44;99641.16;;;2.66;79.11
70302;BME280;57706;56.326;43.882;2023-04-01T00:30:10;99640.50;;;3.05;77.56
70302;BME280;57706;56.326;43.882;2023-04-01T00:32:36;99639.78;;;3.02;77.80
70302;BME280;57706;56.326;43.882;2023-04-01T00:35:03;99633.91;;;3.00;77.65
70302;BME280;57706;56.326;43.882;2023-04-01T00:37:30;99628.38;;;3.25;76.94
70302;BME280;57706;56.326;43.882;2023-04-01T00:39:56;99633.50;;;3.05;77.84
70302;BME280;57706;56.326;43.882;2023-04-01T00:42:23;99628.06;;;3.08;77.92
70302;BME280;57706;56.326;43.882;2023-04-01T00:44:54;99637.72;;;2.96;78.42
70302;BME280;57706;56.326;43.882;2023-04-01T00:47:21;99634.25;;;2.86;79.49
70302;BME280;57706;56.326;43.882;2023-04-01T00:49:50;99632.91;;;2.82;79.61
70302;BME280;57706;56.326;43.882;2023-04-01T00:52:23;99642.94;;;2.96;79.16
70302;BME280;57706;56.326;43.882;2023-04-01T00:54:55;99637.34;;;3.01;78.61
70302;BME280;57706;56.326;43.882;2023-04-01T00:57:42;99629.19;;;3.25;77.87
70302;BME280;57706;56.326;43.882;2023-04-01T01:00:11;99632.47;;;3.27;77.76
70302;BME280;57706;56.326;43.882;2023-04-01T01:02:41;99637.03;;;2.94;79.18
70302;BME280;57706;56.326;43.882;2023-04-01T01:05:12;99633.25;;;3.08;78.91
70302;BME280;57706;56.326;43.882;2023-04-01T01:08:08;99641.22;;;3.26;78.19
70302;BME280;57706;56.326;43.882;2023-04-01T01:10:42;99643.34;;;3.01;79.61
70302;BME280;57706;56.326;43.882;2023-04-01T01:13:33;99631.06;;;3.03;79.56
70302;BME280;57706;56.326;43.882;2023-04-01T01:16:36;99638.38;;;2.88;79.76
70302;BME280;57706;56.326;43.882;2023-04-01T01:28:14;99628.81;;;2.89;80.64
70302;BME280;57706;56.326;43.882;2023-04-01T01:33:42;99620.94;;;3.00;80.10
70302;BME280;57706;56.326;43.882;2023-04-01T01:36:13;99617.66;;;2.98;79.94
70302;BME280;57706;56.326;43.882;2023-04-01T01:38:41;99622.47;;;3.23;79.02
70302;BME280;57706;56.326;43.882;2023-04-01T01:41:08;99616.84;;;3.08;79.65
70302;BME280;57706;56.326;43.882;2023-04-01T01:43:40;99628.06;;;3.08;79.37
70302;BME280;57706;56.326;43.882;2023-04-01T01:46:14;99628.72;;;3.00;79.67
70302;BME280;57706;56.326;43.882;2023-04-01T01:48:43;99624.78;;;3.16;79.82
70302;BME280;57706;56.326;43.882;2023-04-01T01:51:10;99622.47;;;3.13;79.75
70302;BME280;57706;56.326;43.882;2023-04-01T01:53:36;99618.50;;;3.09;79.57
70302;BME280;57706;56.326;43.882;2023-04-01T01:56:03;99620.41;;;3.07;79.66
70302;BME280;57706;56.326;43.882;2023-04-01T01:58:40;99623.34;;;2.92;80.21
70302;BME280;57706;56.326;43.882;2023-04-01T02:01:16;99630.19;;;2.93;81.00
70302;BME280;57706;56.326;43.882;2023-04-01T02:03:44;99624.53;;;2.78;81.75
70302;BME280;57706;56.326;43.882;2023-04-01T02:06:14;99619.84;;;3.03;79.99
70302;BME280;57706;56.326;43.882;2023-04-01T02:08:49;99618.56;;;3.28;78.87
70302;BME280;57706;56.326;43.882;2023-04-01T02:11:19;99610.88;;;3.27;79.37
70302;BME280;57706;56.326;43.882;2023-04-01T02:14:15;99620.13;;;3.10;80.15
70302;BME280;57706;56.326;43.882;2023-04-01T02:19:18;99612.34;;;3.10;80.06
70302;BME280;57706;56.326;43.882;2023-04-01T02:21:56;99612.19;;;3.01;80.15
70302;BME280;57706;56.326;43.882;2023-04-01T02:24:25;99618.84;;;2.94;80.57
70302;BME280;57706;56.326;43.882;2023-04-01T02:26:52;99614.16;;;3.29;79.34
70302;BME280;57706;56.326;43.882;2023-04-01T02:29:20;99614.63;;;2.93;80.61
70302;BME280;57706;56.326;43.882;2023-04-01T02:31:48;99608.53;;;3.14;80.10
70302;BME280;57706;56.326;43.882;2023-04-01T02:34:15;99623.34;;;2.82;81.10
70302;BME280;57706;56.326;43.882;2023-04-01T02:36:41;99611.78;;;2.96;80.58
70302;BME280;57706;56.326;43.882;2023-04-01T02:39:08;99616.84;;;3.08;80.14
70302;BME280;57706;56.326;43.882;2023-04-01T02:41:42;99616.84;;;3.08;80.43
70302;BME280;57706;56.326;43.882;2023-04-01T02:44:09;99623.16;;;3.15;80.04
70302;BME280;57706;56.326;43.882;2023-04-01T02:46:36;99616.97;;;2.96;80.78
70302;BME280;57706;56.326;43.882;2023-04-01T02:49:02;99611.44;;;3.30;79.65
70302;BME280;57706;56.326;43.882;2023-04-01T02:51:29;99611.00;;;3.25;79.23
70302;BME280;57706;56.326;43.882;2023-04-01T02:53:55;99614.72;;;2.82;81.25
70302;BME280;57706;56.326;43.882;2023-04-01T02:56:21;99622.03;;;3.08;80.34
70302;BME280;57706;56.326;43.882;2023-04-01T02:58:47;99615.00;;;3.29;79.04
70302;BME280;57706;56.326;43.882;2023-04-01T03:01:14;99620.25;;;2.98;80.24
70302;BME280;57706;56.326;43.882;2023-04-01T03:03:40;99615.34;;;3.05;80.74
70302;BME280;57706;56.326;43.882;2023-04-01T03:06:08;99611.72;;;3.47;78.44
70302;BME280;57706;56.326;43.882;2023-04-01T03:08:34;99616.09;;;3.37;78.87
70302;BME280;57706;56.326;43.882;2023-04-01T03:11:00;99621.44;;;2.94;80.96
70302;BME280;57706;56.326;43.882;2023-04-01T03:13:26;99616.59;;;3.21;79.78
70302;BME280;57706;56.326;43.882;2023-04-01T03:15:52;99620.44;;;3.16;79.35
70302;BME280;57706;56.326;43.882;2023-04-01T03:18:18;99620.03;;;3.21;79.80
70302;BME280;57706;56.326;43.882;2023-04-01T03:20:44;99615.25;;;3.26;79.60
70302;BME280;57706;56.326;43.882;2023-04-01T03:23:10;99613.06;;;3.12;79.67
70302;BME280;57706;56.326;43.882;2023-04-01T03:25:36;99618.97;;;3.24;79.40
70302;BME280;57706;56.326;43.882;2023-04-01T03:28:02;99621.41;;;3.25;79.13
70302;BME280;57706;56.326;43.882;2023-04-01T03:30:29;99610.84;;;3.17;79.53
70302;BME280;57706;56.326;43.882;2023-04-01T03:32:59;99623.44;;;3.12;79.29
70302;BME280;57706;56.326;43.882;2023-04-01T03:35:26;99628.34;;;3.15;79.52
70302;BME280;57706;56.326;43.882;2023-04-01T03:37:52;99622.50;;;3.33;78.99
70302;BME280;57706;56.326;43.882;2023-04-01T03:40:19;99621.75;;;3.11;79.52
70302;BME280;57706;56.326;43.882;2023-04-01T03:42:46;99621.25;;;3.17;79.43
70302;BME280;57706;56.326;43.882;2023-04-01T03:45:13;99616.41;;;3.53;78.08
70302;BME280;57706;56.326;43.882;2023-04-01T03:47:39;99619.38;;;3.39;78.15
70302;BME280;57706;56.326;43.882;2023-04-01T03:50:06;99630.78;;;3.07;79.67
70302;BME280;57706;56.326;43.882;2023-04-01T03:52:33;99624.81;;;3.36;78.71
70302;BME280;57706;56.326;43.882;2023-04-01T03:54:59;99624.25;;;3.12;79.66
70302;BME280;57706;56.326;43.882;2023-04-01T03:57:25;99627.03;;;3.30;78.97
70302;BME280;57706;56.326;43.882;2023-04-01T03:59:53;99620.78;;;3.63;77.74
70302;BME280;57706;56.326;43.882;2023-04-01T04:02:19;99626.78;;;3.63;77.31
70302;BME280;57706;56.326;43.882;2023-04-01T04:04:45;99626.50;;;3.37;77.83
70302;BME280;57706;56.326;43.882;2023-04-01T04:07:12;99623.63;;;3.40;78.49
70302;BME280;57706;56.326;43.882;2023-04-01T04:10:00;99624.72;;;3.47;78.21
70302;BME280;57706;56.326;43.882;2023-04-01T04:12:26;99634.38;;;3.25;78.43
70302;BME280;57706;56.326;43.882;2023-04-01T04:14:52;99632.38;;;3.58;77.48
70302;BME280;57706;56.326;43.882;2023-04-01T04:17:18;99632.53;;;3.47;77.73
70302;BME280;57706;56.326;43.882;2023-04-01T04:19:44;99628.81;;;3.60;77.84
70302;BME280;57706;56.326;43.882;2023-04-01T04:22:10;99624.28;;;3.42;77.99
70302;BME280;57706;56.326;43.882;2023-04-01T04:24:36;99630.31;;;3.52;77.21
70302;BME280;57706;56.326;43.882;2023-04-01T04:27:11;99633.19;;;3.29;77.72
70302;BME280;57706;56.326;43.882;2023-04-01T04:29:46;99633.97;;;3.30;79.02
70302;BME280;57706;56.326;43.882;2023-04-01T04:32:12;99628.16;;;3.67;77.00
70302;BME280;57706;56.326;43.882;2023-04-01T04:34:38;99628.97;;;3.68;76.24
70302;BME280;57706;56.326;43.882;2023-04-01T04:37:04;99627.03;;;3.50;77.04
70302;BME280;57706;56.326;43.882;2023-04-01T04:39:33;99631.69;;;3.76;76.00
70302;BME280;57706;56.326;43.882;2023-04-01T04:41:59;99618.56;;;3.68;75.93
70302;BME280;57706;56.326;43.882;2023-04-01T04:44:25;99621.56;;;3.34;77.76
70302;BME280;57706;56.326;43.882;2023-04-01T04:46:51;99631.41;;;3.40;77.42
70302;BME280;57706;56.326;43.882;2023-04-01T04:49:18;99634.44;;;3.65;75.88
70302;BME280;57706;56.326;43.882;2023-04-01T04:51:44;99634.03;;;3.60;76.96
70302;BME280;57706;56.326;43.882;2023-04-01T04:54:11;99629.25;;;3.75;76.46
70302;BME280;57706;56.326;43.882;2023-04-01T04:57:03;99625.94;;;3.43;77.59
70302;BME280;57706;56.326;43.882;2023-04-01T04:59:34;99638.66;;;3.36;78.23
70302;BME280;57706;56.326;43.882;2023-04-01T05:02:08;99630.88;;;3.46;77.96
70302;BME280;57706;56.326;43.882;2023-04-01T05:04:35;99631.41;;;3.60;78.38
70302;BME280;57706;56.326;43.882;2023-04-01T05:07:02;99630.31;;;3.52;78.06
70302;BME280;57706;56.326;43.882;2023-04-01T05:09:28;99641.25;;;3.56;78.27
70302;BME280;57706;56.326;43.882;2023-04-01T05:11:54;99631.69;;;3.37;78.95
70302;BME280;57706;56.326;43.882;2023-04-01T05:14:21;99629.38;;;3.53;79.03
70302;BME280;57706;56.326;43.882;2023-04-01T05:17:13;99634.69;;;3.42;79.32
70302;BME280;57706;56.326;43.882;2023-04-01T05:19:39;99634.44;;;3.65;79.70
70302;BME280;57706;56.326;43.882;2023-04-01T05:22:07;99631.97;;;3.63;79.86
70302;BME280;57706;56.326;43.882;2023-04-01T05:24:33;99625.97;;;3.82;79.43
70302;BME280;57706;56.326;43.882;2023-04-01T05:26:59;99624.31;;;4.01;77.67
70302;BME280;57706;56.326;43.882;2023-04-01T05:29:26;99627.03;;;4.09;77.41
70302;BME280;57706;56.326;43.882;2023-04-01T05:31:59;99621.03;;;3.99;77.39
70302;BME280;57706;56.326;43.882;2023-04-01T05:34:25;99620.47;;;4.05;76.67
70302;BME280;57706;56.326;43.882;2023-04-01T05:36:51;99637.03;;;4.04;76.55
70302;BME280;57706;56.326;43.882;2023-04-01T05:39:17;99646.63;;;3.84;78.03
70302;BME280;57706;56.326;43.882;2023-04-01T05:41:43;99636.38;;;3.92;77.73
70302;BME280;57706;56.326;43.882;2023-04-01T05:44:12;99633.34;;;3.77;77.40
70302;BME280;57706;56.326;43.882;2023-04-01T05:46:41;99635.00;;;3.78;79.09
70302;BME280;57706;56.326;43.882;2023-04-01T05:49:33;99634.03;;;3.99;76.31
70302;BME280;57706;56.326;43.882;2023-04-01T05:51:59;99634.31;;;3.96;77.08
70302;BME280;57706;56.326;43.882;2023-04-01T05:54:26;99627.81;;;4.39;75.32
70302;BME280;57706;56.326;43.882;2023-04-01T05:56:52;99634.19;;;4.55;75.99
70302;BME280;57706;56.326;43.882;2023-04-01T05:59:19;99643.66;;;4.56;73.77
70302;BME280;57706;56.326;43.882;2023-04-01T06:01:45;99627.56;;;4.13;75.28
70302;BME280;57706;56.326;43.882;2023-04-01T06:04:16;99636.56;;;4.48;73.77
70302;BME280;57706;56.326;43.882;2023-04-01T06:06:42;99639.28;;;4.47;73.11
70302;BME280;57706;56.326;43.882;2023-04-01T06:09:26;99639.72;;;4.42;74.50
70302;BME280;57706;56.326;43.882;2023-04-01T06:15:23;99634.19;;;4.93;72.76
70302;BME280;57706;56.326;43.882;2023-04-01T06:18:29;99642.31;;;5.18;71.17
70302;BME280;57706;56.326;43.882;2023-04-01T06:32:36;99641.00;;;6.49;62.60
70302;BME280;57706;56.326;43.882;2023-04-01T06:49:49;99637.63;;;8.43;55.70
70302;BME280;57706;56.326;43.882;2023-04-01T06:55:47;99667.25;;;7.77;55.80
70302;BME280;57706;56.326;43.882;2023-04-01T06:58:57;99663.03;;;7.16;57.31
70302;BME280;57706;56.326;43.882;2023-04-01T07:01:44;99660.19;;;7.01;58.45
70302;BME280;57706;56.326;43.882;2023-04-01T07:04:15;99663.06;;;6.89;58.18
70302;BME280;57706;56.326;43.882;2023-04-01T07:06:56;99662.09;;;6.29;60.92
70302;BME280;57706;56.326;43.882;2023-04-01T07:09:37;99668.31;;;6.89;58.81
70302;BME280;57706;56.326;43.882;2023-04-01T07:13:17;99668.63;;;6.60;59.73
70302;BME280;57706;56.326;43.882;2023-04-01T07:21:22;99679.84;;;6.08;62.33
70302;BME280;57706;56.326;43.882;2023-04-01T07:23:50;99691.00;;;6.18;61.41
70302;BME280;57706;56.326;43.882;2023-04-01T07:26:35;99691.50;;;6.40;61.71
70302;BME280;57706;56.326;43.882;2023-04-01T07:29:15;99685.94;;;6.61;60.75
70302;BME280;57706;56.326;43.882;2023-04-01T07:32:44;99679.88;;;6.52;61.00
70302;BME280;57706;56.326;43.882;2023-04-01T07:34:52;99688.47;;;6.26;61.65
70302;BME280;57706;56.326;43.882;2023-04-01T07:41:06;99696.97;;;5.92;62.96
70302;BME280;57706;56.326;43.882;2023-04-01T07:48:58;99711.47;;;6.04;65.58
70302;BME280;57706;56.326;43.882;2023-04-01T08:12:23;99734.00;;;8.14;59.17
70302;BME280;57706;56.326;43.882;2023-04-01T08:18:22;99730.47;;;9.21;55.10
70302;BME280;57706;56.326;43.882;2023-04-01T08:20:58;99754.56;;;9.57;52.11
70302;BME280;57706;56.326;43.882;2023-04-01T08:23:32;99750.06;;;8.11;55.84
70302;BME280;57706;56.326;43.882;2023-04-01T08:26:06;99739.88;;;8.82;54.14
70302;BME280;57706;56.326;43.882;2023-04-01T08:29:05;99756.94;;;8.70;54.32
70302;BME280;57706;56.326;43.882;2023-04-01T08:31:43;99753.97;;;8.07;56.15
70302;BME280;57706;56.326;43.882;2023-04-01T08:34:16;99744.84;;;8.77;54.98
70302;BME280;57706;56.326;43.882;2023-04-01T08:36:51;99769.38;;;8.26;55.65
70302;BME280;57706;56.326;43.882;2023-04-01T08:39:29;99758.88;;;7.93;57.04
70302;BME280;57706;56.326;43.882;2023-04-01T08:42:23;99762.09;;;7.79;57.65
70302;BME280;57706;56.326;43.882;2023-04-01T09:09:06;99798.34;;;7.74;57.99
70302;BME280;57706;56.326;43.882;2023-04-01T09:11:45;99803.78;;;7.72;58.10
70302;BME280;57706;56.326;43.882;2023-04-01T09:20:47;99834.47;;;6.82;60.63
70302;BME280;57706;56.326;43.882;2023-04-01T09:37:53;99861.34;;;6.56;62.49
70302;BME280;57706;56.326;43.882;2023-04-01T09:46:49;99863.22;;;8.98;55.28
70302;BME280;57706;56.326;43.882;2023-04-01T09:49:47;99860.41;;;15.00;43.42
70302;BME280;57706;56.326;43.882;2023-04-01T10:13:11;99871.06;;;16.83;33.04
70302;BME280;57706;56.326;43.882;2023-04-01T10:16:03;99869.31;;;14.65;38.39
70302;BME280;57706;56.326;43.882;2023-04-01T10:24:42;99888.22;;;17.50;32.43
70302;BME280;57706;56.326;43.882;2023-04-01T10:30:33;99881.34;;;13.99;38.92
70302;BME280;57706;56.326;43.882;2023-04-01T10:36:43;99891.09;;;13.28;40.27
70302;BME280;57706;56.326;43.882;2023-04-01T10:42:33;99897.19;;;11.14;44.91
70302;BME280;57706;56.326;43.882;2023-04-01T10:45:59;99902.59;;;10.11;46.44
70302;BME280;57706;56.326;43.882;2023-04-01T10:49:17;99914.94;;;8.71;50.00
70302;BME280;57706;56.326;43.882;2023-04-01T11:05:42;99950.91;;;10.33;50.53
70302;BME280;57706;56.326;43.882;2023-04-01T11:11:28;99948.22;;;8.87;54.22
70302;BME280;57706;56.326;43.882;2023-04-01T11:45:24;99985.28;;;12.47;42.50
70302;BME280;57706;56.326;43.882;2023-04-01T12:01:27;100005.88;;;8.87;50.41
70302;BME280;57706;56.326;43.882;2023-04-01T12:04:18;100000.97;;;9.00;50.04
70302;BME280;57706;56.326;43.882;2023-04-01T12:07:08;99992.72;;;12.95;41.15
70302;BME280;57706;56.326;43.882;2023-04-01T12:12:46;100002.44;;;17.94;32.15
70302;BME280;57706;56.326;43.882;2023-04-01T12:15:42;99995.66;;;19.39;29.98
70302;BME280;57706;56.326;43.882;2023-04-01T12:21:27;99993.78;;;13.73;37.23
70302;BME280;57706;56.326;43.882;2023-04-01T12:29:49;100031.31;;;11.76;41.01
70302;BME280;57706;56.326;43.882;2023-04-01T12:40:01;100021.53;;;11.46;40.58
70302;BME280;57706;56.326;43.882;2023-04-01T12:42:59;100034.19;;;11.04;41.59
70302;BME280;57706;56.326;43.882;2023-04-01T12:45:30;100034.81;;;10.74;42.54
70302;BME280;57706;56.326;43.882;2023-04-01T12:53:22;100062.63;;;9.21;48.96
70302;BME280;57706;56.326;43.882;2023-04-01T12:55:59;100061.47;;;9.07;50.19
70302;BME280;57706;56.326;43.882;2023-04-01T13:01:40;100060.34;;;9.18;50.69
70302;BME280;57706;56.326;43.882;2023-04-01T13:09:30;100078.59;;;8.23;53.93
70302;BME280;57706;56.326;43.882;2023-04-01T13:26:27;100093.75;;;7.30;56.99
70302;BME280;57706;56.326;43.882;2023-04-01T13:29:19;100094.97;;;7.36;56.63
70302;BME280;57706;56.326;43.882;2023-04-01T13:31:55;100097.34;;;7.48;56.22
70302;BME280;57706;56.326;43.882;2023-04-01T13:34:38;100098.31;;;7.47;55.81
70302;BME280;57706;56.326;43.882;2023-04-01T13:43:10;100119.22;;;7.47;55.46
70302;BME280;57706;56.326;43.882;2023-04-01T14:02:50;100158.19;;;7.22;56.16
70302;BME280;57706;56.326;43.882;2023-04-01T14:05:39;100171.53;;;6.91;57.82
70302;BME280;57706;56.326;43.882;2023-04-01T14:19:40;100176.19;;;6.97;58.67
70302;BME280;57706;56.326;43.882;2023-04-01T14:22:38;100190.91;;;7.26;57.49
70302;BME280;57706;56.326;43.882;2023-04-01T14:28:57;100198.38;;;7.21;57.86
70302;BME280;57706;56.326;43.882;2023-04-01T14:31:39;100196.13;;;6.98;58.54
70302;BME280;57706;56.326;43.882;2023-04-01T14:40:27;100213.28;;;7.10;57.29
70302;BME280;57706;56.326;43.882;2023-04-01T14:43:27;100222.16;;;6.89;57.68
70302;BME280;57706;56.326;43.882;2023-04-01T14:48:59;100226.03;;;6.85;57.13
70302;BME280;57706;56.326;43.882;2023-04-01T14:51:38;100223.44;;;6.75;57.66
70302;BME280;57706;56.326;43.882;2023-04-01T14:56:46;100237.47;;;6.65;58.21
70302;BME280;57706;56.326;43.882;2023-04-01T14:59:25;100239.16;;;6.56;58.52
70302;BME280;57706;56.326;43.882;2023-04-01T15:05:25;100253.59;;;6.30;59.61
70302;BME280;57706;56.326;43.882;2023-04-01T15:14:20;100268.28;;;6.31;60.23
70302;BME280;57706;56.326;43.882;2023-04-01T15:17:22;100265.00;;;6.29;60.44
70302;BME280;57706;56.326;43.882;2023-04-01T15:22:52;100264.03;;;6.30;60.67
70302;BME280;57706;56.326;43.882;2023-04-01T15:28:36;100269.78;;;6.24;60.20
70302;BME280;57706;56.326;43.882;2023-04-01T15:39:59;100306.75;;;6.29;60.17
70302;BME280;57706;56.326;43.882;2023-04-01T15:48:20;100322.53;;;6.18;60.87
70302;BME280;57706;56.326;43.882;2023-04-01T15:59:56;100343.47;;;5.97;61.88
70302;BME280;57706;56.326;43.882;2023-04-01T16:02:42;100336.00;;;6.23;61.15
70302;BME280;57706;56.326;43.882;2023-04-01T16:09:06;100351.38;;;6.26;61.42
70302;BME280;57706;56.326;43.882;2023-04-01T16:17:05;100365.38;;;6.05;62.54
70302;BME280;57706;56.326;43.882;2023-04-01T16:19:55;100371.34;;;5.96;63.16
70302;BME280;57706;56.326;43.882;2023-04-01T16:25:32;100347.88;;;5.96;63.63
70302;BME280;57706;56.326;43.882;2023-04-01T16:28:13;100345.59;;;6.13;63.13
70302;BME280;57706;56.326;43.882;2023-04-01T16:30:55;100355.25;;;5.91;63.94
70302;BME280;57706;56.326;43.882;2023-04-01T16:33:29;100358.50;;;6.04;63.59
70302;BME280;57706;56.326;43.882;2023-04-01T16:39:25;100359.28;;;5.95;64.06
70302;BME280;57706;56.326;43.882;2023-04-01T16:41:33;100369.94;;;5.92;64.23
70302;BME280;57706;56.326;43.882;2023-04-01T16:44:22;100369.63;;;5.75;64.85
70302;BME280;57706;56.326;43.882;2023-04-01T16:47:06;100376.66;;;5.85;65.03
70302;BME280;57706;56.326;43.882;2023-04-01T16:49:53;100365.53;;;5.83;64.91
70302;BME280;57706;56.326;43.882;2023-04-01T16:58:36;100369.44;;;5.67;65.67
70302;BME280;57706;56.326;43.882;2023-04-01T17:03:46;100363.09;;;5.29;67.48
70302;BME280;57706;56.326;43.882;2023-04-01T17:07:17;100363.03;;;5.19;67.41
70302;BME280;57706;56.326;43.882;2023-04-01T17:14:51;100368.81;;;4.80;69.12
70302;BME280;57706;56.326;43.882;2023-04-01T17:28:59;100364.38;;;4.59;70.37
70302;BME280;57706;56.326;43.882;2023-04-01T17:31:46;100362.88;;;4.57;70.38
70302;BME280;57706;56.326;43.882;2023-04-01T17:42:15;100375.59;;;4.27;71.69
70302;BME280;57706;56.326;43.882;2023-04-01T17:45:10;100364.75;;;4.22;72.21
70302;BME280;57706;56.326;43.882;2023-04-01T17:50:23;100364.75;;;4.22;72.70
70302;BME280;57706;56.326;43.882;2023-04-01T17:58:59;100370.38;;;4.38;71.81
70302;BME280;57706;56.326;43.882;2023-04-01T18:04:24;100364.91;;;4.41;72.04
70302;BME280;57706;56.326;43.882;2023-04-01T18:07:56;100360.59;;;4.19;72.31
70302;BME280;57706;56.326;43.882;2023-04-01T18:10:28;100366.63;;;4.08;72.98
70302;BME280;57706;56.326;43.882;2023-04-01T18:18:43;100375.25;;;4.32;72.58
70302;BME280;57706;56.326;43.882;2023-04-01T18:25:01;100379.00;;;4.39;72.19
70302;BME280;57706;56.326;43.882;2023-04-01T18:27:06;100371.34;;;4.26;72.67
70302;BME280;57706;56.326;43.882;2023-04-01T18:35:09;100384.56;;;4.34;72.16
70302;BME280;57706;56.326;43.882;2023-04-01T18:38:00;100388.59;;;4.38;72.02
70302;BME280;57706;56.326;43.882;2023-04-01T18:40:34;100383.09;;;4.09;72.66
70302;BME280;57706;56.326;43.882;2023-04-01T18:46:37;100375.66;;;4.04;74.13
70302;BME280;57706;56.326;43.882;2023-04-01T18:49:16;100385.50;;;4.45;72.62
70302;BME280;57706;56.326;43.882;2023-04-01T18:51:52;100381.09;;;4.45;72.30
70302;BME280;57706;56.326;43.882;2023-04-01T18:57:10;100380.09;;;4.69;71.40
70302;BME280;57706;56.326;43.882;2023-04-01T19:02:30;100383.00;;;4.76;70.68
70302;BME280;57706;56.326;43.882;2023-04-01T19:05:18;100384.63;;;4.88;70.31
70302;BME280;57706;56.326;43.882;2023-04-01T19:07:56;100387.25;;;4.77;70.77
70302;BME280;57706;56.326;43.882;2023-04-01T19:10:35;100384.53;;;4.90;70.46
70302;BME280;57706;56.326;43.882;2023-04-01T19:15:44;100384.56;;;5.00;70.19
70302;BME280;57706;56.326;43.882;2023-04-01T19:21:18;100386.88;;;5.14;69.35
70302;BME280;57706;56.326;43.882;2023-04-01T19:23:52;100385.72;;;5.07;69.28
70302;BME280;57706;56.326;43.882;2023-04-01T19:26:29;100385.34;;;5.33;68.67
70302;BME280;57706;56.326;43.882;2023-04-01T19:37:28;100378.97;;;5.26;68.99
70302;BME280;57706;56.326;43.882;2023-04-01T19:45:46;100386.56;;;5.29;69.07
70302;BME280;57706;56.326;43.882;2023-04-01T19:48:48;100387.81;;;5.13;69.21
70302;BME280;57706;56.326;43.882;2023-04-01T19:51:30;100393.63;;;5.69;67.57
70302;BME280;57706;56.326;43.882;2023-04-01T20:02:39;100390.72;;;5.41;68.91
70302;BME280;57706;56.326;43.882;2023-04-01T20:07:53;100386.50;;;5.71;67.49
70302;BME280;57706;56.326;43.882;2023-04-01T20:10:32;100393.97;;;5.55;67.74
70302;BME280;57706;56.326;43.882;2023-04-01T20:13:28;100394.38;;;5.60;68.05
70302;BME280;57706;56.326;43.882;2023-04-01T20:16:08;100400.56;;;5.59;67.98
70302;BME280;57706;56.326;43.882;2023-04-01T20:18:59;100400.38;;;5.50;68.61
70302;BME280;57706;56.326;43.882;2023-04-01T20:21:47;100398.69;;;5.61;68.31
70302;BME280;57706;56.326;43.882;2023-04-01T20:24:25;100400.91;;;5.75;67.80
70302;BME280;57706;56.326;43.882;2023-04-01T20:27:19;100404.75;;;5.71;67.85
70302;BME280;57706;56.326;43.882;2023-04-01T20:44:10;100423.03;;;6.02;67.67
70302;BME280;57706;56.326;43.882;2023-04-01T20:53:16;100434.84;;;6.06;67.78
70302;BME280;57706;56.326;43.882;2023-04-01T21:03:34;100435.94;;;6.04;68.34
70302;BME280;57706;56.326;43.882;2023-04-01T21:09:02;100439.97;;;5.87;68.86
70302;BME280;57706;56.326;43.882;2023-04-01T21:11:58;100446.38;;;6.04;68.50
70302;BME280;57706;56.326;43.882;2023-04-01T21:17:22;100449.75;;;5.95;69.25
70302;BME280;57706;56.326;43.882;2023-04-01T21:28:43;100462.03;;;6.04;69.55
70302;BME280;57706;56.326;43.882;2023-04-01T21:34:15;100459.50;;;5.92;69.85
70302;BME280;57706;56.326;43.882;2023-04-01T21:36:58;100466.66;;;6.00;69.68
70302;BME280;57706;56.326;43.882;2023-04-01T21:39:56;100463.28;;;5.88;70.72
70302;BME280;57706;56.326;43.882;2023-04-01T21:45:49;100467.69;;;5.88;71.35
70302;BME280;57706;56.326;43.882;2023-04-01T21:48:53;100474.84;;;5.86;71.97
70302;BME280;57706;56.326;43.882;2023-04-01T22:05:25;100474.53;;;5.58;74.94
70302;BME280;57706;56.326;43.882;2023-04-01T22:28:07;100474.84;;;5.43;75.27
70302;BME280;57706;56.326;43.882;2023-04-01T22:30:42;100477.50;;;5.74;74.14
70302;BME280;57706;56.326;43.882;2023-04-01T22:43:41;100473.19;;;6.06;72.38
70302;BME280;57706;56.326;43.882;2023-04-01T22:56:53;100475.13;;;6.14;72.60
70302;BME280;57706;56.326;43.882;2023-04-01T22:59:35;100479.81;;;6.20;72.44
70302;BME280;57706;56.326;43.882;2023-04-01T23:02:42;100487.72;;;6.40;71.29
70302;BME280;57706;56.326;43.882;2023-04-01T23:05:02;100484.38;;;6.28;71.83
70302;BME280;57706;56.326;43.882;2023-04-01T23:10:05;100485.84;;;6.11;72.27
70302;BME280;57706;56.326;43.882;2023-04-01T23:12:38;100490.72;;;6.35;70.64
70302;BME280;57706;56.326;43.882;2023-04-01T23:15:13;100482.78;;;6.37;70.66
70302;BME280;57706;56.326;43.882;2023-04-01T23:18:09;100481.94;;;6.36;70.70
70302;BME280;57706;56.326;43.882;2023-04-01T23:29:16;100486.56;;;6.01;71.92
70302;BME280;57706;56.326;43.882;2023-04-01T23:31:46;100492.50;;;6.34;70.63
70302;BME280;57706;56.326;43.882;2023-04-01T23:36:50;100492.66;;;6.33;70.56
70302;BME280;57706;56.326;43.882;2023-04-01T23:39:22;100497.63;;;6.46;70.50
70302;BME280;57706;56.326;43.882;2023-04-01T23:41:51;100498.00;;;6.31;70.89
70302;BME280;57706;56.326;43.882;2023-04-01T23:44:18;100494.84;;;6.38;71.01